sensor_id;sensor_type;location;lat;lon;timestamp;pressure;altitude;pressure_sealevel;temperature;humidity
60642;BME280;46837;52.446;-1.930;2023-04-24T00:00:13;99278.17;;;8.59;77.85
60642;BME280;46837;52.446;-1.930;2023-04-24T00:01:10;99279.26;;;8.59;77.82
60642;BME280;46837;52.446;-1.930;2023-04-24T00:02:09;99280.85;;;8.56;77.92
60642;BME280;46837;52.446;-1.930;2023-04-24T00:03:09;99279.53;;;8.57;78.07
60642;BME280;46837;52.446;-1.930;2023-04-24T00:04:09;99285.09;;;8.59;77.99
60642;BME280;46837;52.446;-1.930;2023-04-24T00:05:09;99286.48;;;8.60;78.03
60642;BME280;46837;52.446;-1.930;2023-04-24T00:06:09;99286.32;;;8.60;77.99
60642;BME280;46837;52.446;-1.930;2023-04-24T00:07:09;99286.43;;;8.60;78.07
60642;BME280;46837;52.446;-1.930;2023-04-24T00:08:09;99289.43;;;8.62;78.03
60642;BME280;46837;52.446;-1.930;2023-04-24T00:09:09;99290.69;;;8.63;78.05
60642;BME280;46837;52.446;-1.930;2023-04-24T00:10:09;99289.69;;;8.64;78.00
60642;BME280;46837;52.446;-1.930;2023-04-24T00:11:09;99294.63;;;8.67;77.94
60642;BME280;46837;52.446;-1.930;2023-04-24T00:12:09;99293.92;;;8.68;77.95
60642;BME280;46837;52.446;-1.930;2023-04-24T00:13:09;99293.54;;;8.69;77.92
60642;BME280;46837;52.446;-1.930;2023-04-24T00:14:09;99294.52;;;8.69;77.90
60642;BME280;46837;52.446;-1.930;2023-04-24T00:15:09;99295.40;;;8.70;77.92
60642;BME280;46837;52.446;-1.930;2023-04-24T00:16:09;99297.73;;;8.73;77.88
60642;BME280;46837;52.446;-1.930;2023-04-24T00:17:09;99300.00;;;8.76;77.86
60642;BME280;46837;52.446;-1.930;2023-04-24T00:18:09;99298.64;;;8.77;77.82
60642;BME280;46837;52.446;-1.930;2023-04-24T00:19:09;99298.88;;;8.82;77.75
60642;BME280;46837;52.446;-1.930;2023-04-24T00:20:09;99300.19;;;8.83;77.84
60642;BME280;46837;52.446;-1.930;2023-04-24T00:21:09;99299.76;;;8.83;77.84
60642;BME280;46837;52.446;-1.930;2023-04-24T00:22:09;99298.43;;;8.85;77.84
60642;BME280;46837;52.446;-1.930;2023-04-24T00:23:09;99293.76;;;8.84;77.79
60642;BME280;46837;52.446;-1.930;2023-04-24T00:24:09;99292.93;;;8.86;77.69
60642;BME280;46837;52.446;-1.930;2023-04-24T00:25:09;99291.68;;;8.86;77.62
60642;BME280;46837;52.446;-1.930;2023-04-24T00:26:09;99288.40;;;8.84;77.63
60642;BME280;46837;52.446;-1.930;2023-04-24T00:27:09;99288.41;;;8.85;77.62
60642;BME280;46837;52.446;-1.930;2023-04-24T00:28:09;99285.30;;;8.87;77.49
60642;BME280;46837;52.446;-1.930;2023-04-24T00:29:09;99283.78;;;8.87;77.43
60642;BME280;46837;52.446;-1.930;2023-04-24T00:30:09;99280.36;;;8.81;77.47
60642;BME280;46837;52.446;-1.930;2023-04-24T00:31:09;99281.57;;;8.78;77.61
60642;BME280;46837;52.446;-1.930;2023-04-24T00:32:09;99285.24;;;8.76;77.68
60642;BME280;46837;52.446;-1.930;2023-04-24T00:33:09;99284.33;;;8.73;77.77
60642;BME280;46837;52.446;-1.930;2023-04-24T00:34:09;99288.52;;;8.73;77.79
60642;BME280;46837;52.446;-1.930;2023-04-24T00:35:09;99292.33;;;8.71;77.77
60642;BME280;46837;52.446;-1.930;2023-04-24T00:36:09;99291.89;;;8.71;77.88
60642;BME280;46837;52.446;-1.930;2023-04-24T00:37:09;99291.24;;;8.70;77.88
60642;BME280;46837;52.446;-1.930;2023-04-24T00:38:09;99294.86;;;8.70;77.92
60642;BME280;46837;52.446;-1.930;2023-04-24T00:39:09;99297.02;;;8.72;77.91
60642;BME280;46837;52.446;-1.930;2023-04-24T00:40:09;99297.78;;;8.72;77.89
60642;BME280;46837;52.446;-1.930;2023-04-24T00:41:09;99296.30;;;8.71;77.90
60642;BME280;46837;52.446;-1.930;2023-04-24T00:42:09;99293.59;;;8.72;77.88
60642;BME280;46837;52.446;-1.930;2023-04-24T00:43:09;99295.32;;;8.72;77.86
60642;BME280;46837;52.446;-1.930;2023-04-24T00:44:09;99294.55;;;8.75;77.87
60642;BME280;46837;52.446;-1.930;2023-04-24T00:45:09;99294.39;;;8.75;77.87
60642;BME280;46837;52.446;-1.930;2023-04-24T00:46:09;99290.30;;;8.74;77.82
60642;BME280;46837;52.446;-1.930;2023-04-24T00:47:09;99292.64;;;8.74;77.82
60642;BME280;46837;52.446;-1.930;2023-04-24T00:48:09;99296.42;;;8.73;77.78
60642;BME280;46837;52.446;-1.930;2023-04-24T00:49:09;99298.87;;;8.72;77.89
60642;BME280;46837;52.446;-1.930;2023-04-24T00:50:09;99297.72;;;8.71;77.89
60642;BME280;46837;52.446;-1.930;2023-04-24T00:51:09;99298.49;;;8.73;77.87
60642;BME280;46837;52.446;-1.930;2023-04-24T00:52:11;99300.29;;;8.73;77.87
60642;BME280;46837;52.446;-1.930;2023-04-24T00:53:09;99303.59;;;8.75;77.90
60642;BME280;46837;52.446;-1.930;2023-04-24T00:54:09;99304.75;;;8.72;77.92
60642;BME280;46837;52.446;-1.930;2023-04-24T00:55:09;99306.39;;;8.73;78.00
60642;BME280;46837;52.446;-1.930;2023-04-24T00:56:09;99305.89;;;8.72;77.98
60642;BME280;46837;52.446;-1.930;2023-04-24T00:57:09;99308.84;;;8.72;78.02
60642;BME280;46837;52.446;-1.930;2023-04-24T00:58:09;99308.48;;;8.67;78.06
60642;BME280;46837;52.446;-1.930;2023-04-24T00:59:09;99309.30;;;8.65;78.12
60642;BME280;46837;52.446;-1.930;2023-04-24T01:00:09;99311.04;;;8.65;78.11
60642;BME280;46837;52.446;-1.930;2023-04-24T01:01:09;99314.14;;;8.65;78.09
60642;BME280;46837;52.446;-1.930;2023-04-24T01:02:09;99313.47;;;8.67;78.11
60642;BME280;46837;52.446;-1.930;2023-04-24T01:03:09;99313.98;;;8.65;77.98
60642;BME280;46837;52.446;-1.930;2023-04-24T01:04:10;99314.18;;;8.68;77.89
60642;BME280;46837;52.446;-1.930;2023-04-24T01:05:11;99312.35;;;8.67;77.84
60642;BME280;46837;52.446;-1.930;2023-04-24T01:06:09;99311.24;;;8.68;77.82
60642;BME280;46837;52.446;-1.930;2023-04-24T01:07:13;99312.66;;;8.68;77.76
60642;BME280;46837;52.446;-1.930;2023-04-24T01:08:09;99314.25;;;8.66;77.60
60642;BME280;46837;52.446;-1.930;2023-04-24T01:09:09;99318.00;;;8.68;77.52
60642;BME280;46837;52.446;-1.930;2023-04-24T01:10:09;99321.38;;;8.68;77.41
60642;BME280;46837;52.446;-1.930;2023-04-24T01:11:09;99323.77;;;8.68;77.35
60642;BME280;46837;52.446;-1.930;2023-04-24T01:12:09;99325.79;;;8.68;77.26
60642;BME280;46837;52.446;-1.930;2023-04-24T01:13:11;99327.48;;;8.69;77.21
60642;BME280;46837;52.446;-1.930;2023-04-24T01:14:09;99330.14;;;8.67;77.16
60642;BME280;46837;52.446;-1.930;2023-04-24T01:15:09;99326.77;;;8.68;77.23
60642;BME280;46837;52.446;-1.930;2023-04-24T01:16:09;99329.16;;;8.68;77.14
60642;BME280;46837;52.446;-1.930;2023-04-24T01:17:09;99325.47;;;8.65;77.07
60642;BME280;46837;52.446;-1.930;2023-04-24T01:18:09;99328.47;;;8.66;77.06
60642;BME280;46837;52.446;-1.930;2023-04-24T01:19:09;99327.36;;;8.69;77.03
60642;BME280;46837;52.446;-1.930;2023-04-24T01:20:09;99329.43;;;8.68;76.97
60642;BME280;46837;52.446;-1.930;2023-04-24T01:21:09;99328.18;;;8.68;76.95
60642;BME280;46837;52.446;-1.930;2023-04-24T01:23:09;99329.15;;;8.70;76.70
60642;BME280;46837;52.446;-1.930;2023-04-24T01:24:09;99334.39;;;8.73;76.70
60642;BME280;46837;52.446;-1.930;2023-04-24T01:25:09;99332.20;;;8.76;76.73
60642;BME280;46837;52.446;-1.930;2023-04-24T01:26:09;99330.23;;;8.77;76.65
60642;BME280;46837;52.446;-1.930;2023-04-24T01:27:09;99329.24;;;8.80;76.62
60642;BME280;46837;52.446;-1.930;2023-04-24T01:28:09;99328.54;;;8.80;76.46
60642;BME280;46837;52.446;-1.930;2023-04-24T01:29:09;99333.05;;;8.80;76.28
60642;BME280;46837;52.446;-1.930;2023-04-24T01:30:09;99330.98;;;8.78;76.11
60642;BME280;46837;52.446;-1.930;2023-04-24T01:31:09;99331.69;;;8.80;76.10
60642;BME280;46837;52.446;-1.930;2023-04-24T01:32:09;99329.68;;;8.80;75.94
60642;BME280;46837;52.446;-1.930;2023-04-24T01:33:09;99327.15;;;8.81;75.91
60642;BME280;46837;52.446;-1.930;2023-04-24T01:34:09;99327.59;;;8.82;75.84
60642;BME280;46837;52.446;-1.930;2023-04-24T01:35:09;99323.23;;;8.83;75.72
60642;BME280;46837;52.446;-1.930;2023-04-24T01:36:10;99325.19;;;8.81;75.69
60642;BME280;46837;52.446;-1.930;2023-04-24T01:37:09;99320.35;;;8.82;75.75
60642;BME280;46837;52.446;-1.930;2023-04-24T01:38:09;99322.38;;;8.80;75.56
60642;BME280;46837;52.446;-1.930;2023-04-24T01:39:09;99324.01;;;8.79;75.52
60642;BME280;46837;52.446;-1.930;2023-04-24T01:40:09;99323.59;;;8.76;75.55
60642;BME280;46837;52.446;-1.930;2023-04-24T01:41:09;99323.53;;;8.76;75.56
60642;BME280;46837;52.446;-1.930;2023-04-24T01:42:09;99327.34;;;8.76;75.59
60642;BME280;46837;52.446;-1.930;2023-04-24T01:43:09;99324.02;;;8.76;75.49
60642;BME280;46837;52.446;-1.930;2023-04-24T01:44:09;99329.29;;;8.78;75.39
60642;BME280;46837;52.446;-1.930;2023-04-24T01:45:10;99329.36;;;8.77;75.37
60642;BME280;46837;52.446;-1.930;2023-04-24T01:46:09;99329.56;;;8.78;75.38
60642;BME280;46837;52.446;-1.930;2023-04-24T01:47:09;99334.47;;;8.79;75.28
60642;BME280;46837;52.446;-1.930;2023-04-24T01:48:09;99333.32;;;8.79;75.34
60642;BME280;46837;52.446;-1.930;2023-04-24T01:49:09;99335.72;;;8.78;75.38
60642;BME280;46837;52.446;-1.930;2023-04-24T01:50:09;99338.17;;;8.79;75.36
60642;BME280;46837;52.446;-1.930;2023-04-24T01:51:09;99338.77;;;8.78;75.17
60642;BME280;46837;52.446;-1.930;2023-04-24T01:52:09;99340.19;;;8.80;75.14
60642;BME280;46837;52.446;-1.930;2023-04-24T01:53:09;99337.45;;;8.83;75.08
60642;BME280;46837;52.446;-1.930;2023-04-24T01:54:09;99339.30;;;8.81;74.89
60642;BME280;46837;52.446;-1.930;2023-04-24T01:55:09;99337.30;;;8.79;74.74
60642;BME280;46837;52.446;-1.930;2023-04-24T01:56:09;99337.09;;;8.80;74.64
60642;BME280;46837;52.446;-1.930;2023-04-24T01:57:09;99338.38;;;8.84;74.60
60642;BME280;46837;52.446;-1.930;2023-04-24T01:58:09;99334.35;;;8.83;74.47
60642;BME280;46837;52.446;-1.930;2023-04-24T01:59:09;99337.82;;;8.87;74.42
60642;BME280;46837;52.446;-1.930;2023-04-24T02:00:09;99337.21;;;8.89;74.48
60642;BME280;46837;52.446;-1.930;2023-04-24T02:01:09;99335.47;;;8.90;74.34
60642;BME280;46837;52.446;-1.930;2023-04-24T02:02:09;99335.94;;;8.92;74.20
60642;BME280;46837;52.446;-1.930;2023-04-24T02:03:09;99335.09;;;8.89;74.12
60642;BME280;46837;52.446;-1.930;2023-04-24T02:04:09;99333.88;;;8.89;74.13
60642;BME280;46837;52.446;-1.930;2023-04-24T02:05:09;99329.80;;;8.89;74.15
60642;BME280;46837;52.446;-1.930;2023-04-24T02:06:09;99330.79;;;8.91;74.16
60642;BME280;46837;52.446;-1.930;2023-04-24T02:07:09;99329.20;;;8.91;74.14
60642;BME280;46837;52.446;-1.930;2023-04-24T02:08:09;99330.02;;;8.91;74.23
60642;BME280;46837;52.446;-1.930;2023-04-24T02:09:09;99329.84;;;8.92;74.23
60642;BME280;46837;52.446;-1.930;2023-04-24T02:10:09;99328.70;;;8.92;74.28
60642;BME280;46837;52.446;-1.930;2023-04-24T02:11:09;99330.26;;;8.95;74.29
60642;BME280;46837;52.446;-1.930;2023-04-24T02:12:09;99329.95;;;8.93;74.27
60642;BME280;46837;52.446;-1.930;2023-04-24T02:13:09;99334.20;;;8.93;74.29
60642;BME280;46837;52.446;-1.930;2023-04-24T02:14:09;99332.18;;;8.93;74.28
60642;BME280;46837;52.446;-1.930;2023-04-24T02:15:09;99334.80;;;8.92;74.18
60642;BME280;46837;52.446;-1.930;2023-04-24T02:16:09;99334.38;;;8.90;74.31
60642;BME280;46837;52.446;-1.930;2023-04-24T02:17:09;99335.14;;;8.89;74.25
60642;BME280;46837;52.446;-1.930;2023-04-24T02:18:09;99340.80;;;8.88;74.08
60642;BME280;46837;52.446;-1.930;2023-04-24T02:19:09;99336.74;;;8.81;74.10
60642;BME280;46837;52.446;-1.930;2023-04-24T02:20:09;99336.08;;;8.85;74.22
60642;BME280;46837;52.446;-1.930;2023-04-24T02:21:09;99336.41;;;8.87;74.18
60642;BME280;46837;52.446;-1.930;2023-04-24T02:22:09;99334.81;;;8.89;74.17
60642;BME280;46837;52.446;-1.930;2023-04-24T02:23:09;99339.46;;;8.86;74.33
60642;BME280;46837;52.446;-1.930;2023-04-24T02:24:09;99339.95;;;8.87;74.34
60642;BME280;46837;52.446;-1.930;2023-04-24T02:25:09;99339.55;;;8.89;74.26
60642;BME280;46837;52.446;-1.930;2023-04-24T02:26:09;99342.68;;;8.88;74.13
60642;BME280;46837;52.446;-1.930;2023-04-24T02:27:09;99339.93;;;8.89;74.23
60642;BME280;46837;52.446;-1.930;2023-04-24T02:28:09;99340.52;;;8.93;74.19
60642;BME280;46837;52.446;-1.930;2023-04-24T02:29:09;99340.72;;;8.96;74.04
60642;BME280;46837;52.446;-1.930;2023-04-24T02:30:09;99339.63;;;8.95;74.17
60642;BME280;46837;52.446;-1.930;2023-04-24T02:31:09;99338.53;;;8.99;74.04
60642;BME280;46837;52.446;-1.930;2023-04-24T02:32:09;99343.22;;;9.01;73.92
60642;BME280;46837;52.446;-1.930;2023-04-24T02:33:09;99344.18;;;9.02;73.83
60642;BME280;46837;52.446;-1.930;2023-04-24T02:34:09;99347.29;;;9.04;73.94
60642;BME280;46837;52.446;-1.930;2023-04-24T02:35:09;99345.48;;;9.07;73.84
60642;BME280;46837;52.446;-1.930;2023-04-24T02:36:09;99346.93;;;9.10;73.68
60642;BME280;46837;52.446;-1.930;2023-04-24T02:37:09;99349.12;;;9.12;73.37
60642;BME280;46837;52.446;-1.930;2023-04-24T02:38:09;99349.75;;;9.13;73.36
60642;BME280;46837;52.446;-1.930;2023-04-24T02:39:09;99352.10;;;9.15;73.20
60642;BME280;46837;52.446;-1.930;2023-04-24T02:40:09;99350.84;;;9.13;73.08
60642;BME280;46837;52.446;-1.930;2023-04-24T02:41:09;99351.71;;;9.13;72.99
60642;BME280;46837;52.446;-1.930;2023-04-24T02:42:09;99352.55;;;9.10;72.72
60642;BME280;46837;52.446;-1.930;2023-04-24T02:43:09;99355.64;;;9.13;72.73
60642;BME280;46837;52.446;-1.930;2023-04-24T02:44:09;99356.47;;;9.09;72.77
60642;BME280;46837;52.446;-1.930;2023-04-24T02:45:09;99358.45;;;9.06;72.58
60642;BME280;46837;52.446;-1.930;2023-04-24T02:46:09;99356.27;;;9.08;72.78
60642;BME280;46837;52.446;-1.930;2023-04-24T02:47:09;99355.89;;;9.09;72.69
60642;BME280;46837;52.446;-1.930;2023-04-24T02:48:09;99355.05;;;9.11;72.70
60642;BME280;46837;52.446;-1.930;2023-04-24T02:49:09;99360.73;;;9.12;72.62
60642;BME280;46837;52.446;-1.930;2023-04-24T02:50:09;99360.11;;;9.13;72.59
60642;BME280;46837;52.446;-1.930;2023-04-24T02:51:09;99357.62;;;9.12;72.59
60642;BME280;46837;52.446;-1.930;2023-04-24T02:52:09;99361.33;;;9.12;72.61
60642;BME280;46837;52.446;-1.930;2023-04-24T02:53:09;99368.86;;;9.08;72.65
60642;BME280;46837;52.446;-1.930;2023-04-24T02:54:09;99368.79;;;9.09;72.64
60642;BME280;46837;52.446;-1.930;2023-04-24T02:55:09;99369.84;;;9.06;72.59
60642;BME280;46837;52.446;-1.930;2023-04-24T02:56:09;99376.27;;;9.07;72.72
60642;BME280;46837;52.446;-1.930;2023-04-24T02:57:09;99376.27;;;9.07;72.69
60642;BME280;46837;52.446;-1.930;2023-04-24T02:58:09;99376.83;;;9.05;72.57
60642;BME280;46837;52.446;-1.930;2023-04-24T02:59:09;99377.54;;;9.05;72.64
60642;BME280;46837;52.446;-1.930;2023-04-24T03:00:09;99379.31;;;8.98;72.69
60642;BME280;46837;52.446;-1.930;2023-04-24T03:01:09;99380.06;;;9.01;72.66
60642;BME280;46837;52.446;-1.930;2023-04-24T03:02:09;99379.02;;;8.99;72.43
60642;BME280;46837;52.446;-1.930;2023-04-24T03:03:09;99380.27;;;9.00;72.46
60642;BME280;46837;52.446;-1.930;2023-04-24T03:04:09;99376.62;;;9.00;72.51
60642;BME280;46837;52.446;-1.930;2023-04-24T03:05:09;99380.48;;;9.02;72.51
60642;BME280;46837;52.446;-1.930;2023-04-24T03:06:09;99379.17;;;9.04;72.55
60642;BME280;46837;52.446;-1.930;2023-04-24T03:07:09;99382.64;;;9.06;72.66
60642;BME280;46837;52.446;-1.930;2023-04-24T03:08:09;99385.59;;;9.08;72.60
60642;BME280;46837;52.446;-1.930;2023-04-24T03:09:09;99385.69;;;9.10;72.46
60642;BME280;46837;52.446;-1.930;2023-04-24T03:10:09;99388.58;;;9.11;72.38
60642;BME280;46837;52.446;-1.930;2023-04-24T03:11:09;99388.74;;;9.11;72.27
60642;BME280;46837;52.446;-1.930;2023-04-24T03:12:09;99390.63;;;9.13;72.27
60642;BME280;46837;52.446;-1.930;2023-04-24T03:13:09;99393.64;;;9.11;71.93
60642;BME280;46837;52.446;-1.930;2023-04-24T03:14:09;99392.17;;;9.11;72.11
60642;BME280;46837;52.446;-1.930;2023-04-24T03:15:09;99391.75;;;9.08;71.96
60642;BME280;46837;52.446;-1.930;2023-04-24T03:16:09;99398.72;;;9.06;72.19
60642;BME280;46837;52.446;-1.930;2023-04-24T03:17:09;99399.71;;;9.09;72.12
60642;BME280;46837;52.446;-1.930;2023-04-24T03:18:09;99398.89;;;9.08;72.08
60642;BME280;46837;52.446;-1.930;2023-04-24T03:19:09;99404.54;;;9.10;71.96
60642;BME280;46837;52.446;-1.930;2023-04-24T03:20:13;99401.62;;;9.08;71.97
60642;BME280;46837;52.446;-1.930;2023-04-24T03:21:09;99402.47;;;9.10;72.10
60642;BME280;46837;52.446;-1.930;2023-04-24T03:22:09;99405.14;;;9.10;72.23
60642;BME280;46837;52.446;-1.930;2023-04-24T03:23:09;99401.82;;;9.12;72.17
60642;BME280;46837;52.446;-1.930;2023-04-24T03:24:09;99406.00;;;9.13;72.12
60642;BME280;46837;52.446;-1.930;2023-04-24T03:25:09;99403.51;;;9.12;72.25
60642;BME280;46837;52.446;-1.930;2023-04-24T03:26:09;99404.29;;;9.09;72.30
60642;BME280;46837;52.446;-1.930;2023-04-24T03:27:09;99407.77;;;9.08;72.41
60642;BME280;46837;52.446;-1.930;2023-04-24T03:28:09;99409.62;;;9.07;72.58
60642;BME280;46837;52.446;-1.930;2023-04-24T03:29:09;99405.70;;;9.07;72.76
60642;BME280;46837;52.446;-1.930;2023-04-24T03:30:09;99411.00;;;9.03;72.93
60642;BME280;46837;52.446;-1.930;2023-04-24T03:31:09;99411.73;;;8.96;73.04
60642;BME280;46837;52.446;-1.930;2023-04-24T03:32:09;99410.41;;;8.95;73.21
60642;BME280;46837;52.446;-1.930;2023-04-24T03:33:09;99414.54;;;8.83;73.19
60642;BME280;46837;52.446;-1.930;2023-04-24T03:34:09;99412.43;;;8.80;73.38
60642;BME280;46837;52.446;-1.930;2023-04-24T03:35:09;99418.54;;;8.73;73.09
60642;BME280;46837;52.446;-1.930;2023-04-24T03:36:09;99420.73;;;8.66;73.34
60642;BME280;46837;52.446;-1.930;2023-04-24T03:37:09;99421.28;;;8.62;73.38
60642;BME280;46837;52.446;-1.930;2023-04-24T03:38:09;99421.88;;;8.58;73.51
60642;BME280;46837;52.446;-1.930;2023-04-24T03:39:09;99421.17;;;8.57;73.48
60642;BME280;46837;52.446;-1.930;2023-04-24T03:40:09;99420.62;;;8.53;73.24
60642;BME280;46837;52.446;-1.930;2023-04-24T03:41:09;99426.30;;;8.51;73.49
60642;BME280;46837;52.446;-1.930;2023-04-24T03:42:09;99427.11;;;8.51;73.42
60642;BME280;46837;52.446;-1.930;2023-04-24T03:43:09;99429.07;;;8.47;73.18
60642;BME280;46837;52.446;-1.930;2023-04-24T03:44:09;99426.57;;;8.47;73.29
60642;BME280;46837;52.446;-1.930;2023-04-24T03:45:09;99427.89;;;8.45;73.15
60642;BME280;46837;52.446;-1.930;2023-04-24T03:46:09;99428.31;;;8.43;73.08
60642;BME280;46837;52.446;-1.930;2023-04-24T03:47:09;99430.41;;;8.34;72.78
60642;BME280;46837;52.446;-1.930;2023-04-24T03:48:09;99438.14;;;8.24;72.42
60642;BME280;46837;52.446;-1.930;2023-04-24T03:49:09;99434.76;;;8.16;72.29
60642;BME280;46837;52.446;-1.930;2023-04-24T03:50:09;99435.36;;;8.11;72.09
60642;BME280;46837;52.446;-1.930;2023-04-24T03:51:09;99434.81;;;8.10;72.42
60642;BME280;46837;52.446;-1.930;2023-04-24T03:52:09;99439.53;;;8.08;72.66
60642;BME280;46837;52.446;-1.930;2023-04-24T03:53:09;99437.41;;;8.09;72.80
60642;BME280;46837;52.446;-1.930;2023-04-24T03:54:09;99439.86;;;8.06;72.63
60642;BME280;46837;52.446;-1.930;2023-04-24T03:55:09;99442.57;;;8.01;72.76
60642;BME280;46837;52.446;-1.930;2023-04-24T03:56:09;99438.65;;;8.01;72.90
60642;BME280;46837;52.446;-1.930;2023-04-24T03:57:09;99437.87;;;7.88;73.17
60642;BME280;46837;52.446;-1.930;2023-04-24T03:58:09;99440.71;;;7.89;73.37
60642;BME280;46837;52.446;-1.930;2023-04-24T03:59:09;99439.40;;;7.92;73.51
60642;BME280;46837;52.446;-1.930;2023-04-24T04:00:09;99440.81;;;7.91;73.31
60642;BME280;46837;52.446;-1.930;2023-04-24T04:01:09;99444.03;;;7.89;73.35
60642;BME280;46837;52.446;-1.930;2023-04-24T04:02:09;99443.36;;;7.90;73.43
60642;BME280;46837;52.446;-1.930;2023-04-24T04:03:09;99445.16;;;7.90;73.22
60642;BME280;46837;52.446;-1.930;2023-04-24T04:04:09;99445.58;;;7.86;73.09
60642;BME280;46837;52.446;-1.930;2023-04-24T04:05:09;99443.07;;;7.81;73.09
60642;BME280;46837;52.446;-1.930;2023-04-24T04:06:09;99444.71;;;7.81;73.27
60642;BME280;46837;52.446;-1.930;2023-04-24T04:07:09;99446.06;;;7.83;73.22
60642;BME280;46837;52.446;-1.930;2023-04-24T04:08:09;99444.33;;;7.82;73.12
60642;BME280;46837;52.446;-1.930;2023-04-24T04:09:09;99444.25;;;7.76;72.96
60642;BME280;46837;52.446;-1.930;2023-04-24T04:10:09;99446.97;;;7.76;73.23
60642;BME280;46837;52.446;-1.930;2023-04-24T04:11:09;99447.09;;;7.75;73.37
60642;BME280;46837;52.446;-1.930;2023-04-24T04:12:09;99448.28;;;7.76;73.59
60642;BME280;46837;52.446;-1.930;2023-04-24T04:13:09;99449.42;;;7.76;73.89
60642;BME280;46837;52.446;-1.930;2023-04-24T04:14:09;99449.98;;;7.75;73.58
60642;BME280;46837;52.446;-1.930;2023-04-24T04:15:09;99446.96;;;7.71;73.53
60642;BME280;46837;52.446;-1.930;2023-04-24T04:16:09;99446.64;;;7.68;73.73
60642;BME280;46837;52.446;-1.930;2023-04-24T04:17:09;99443.38;;;7.56;73.58
60642;BME280;46837;52.446;-1.930;2023-04-24T04:18:09;99444.83;;;7.50;73.75
60642;BME280;46837;52.446;-1.930;2023-04-24T04:19:09;99448.80;;;7.47;73.91
60642;BME280;46837;52.446;-1.930;2023-04-24T04:20:12;99449.75;;;7.42;73.93
60642;BME280;46837;52.446;-1.930;2023-04-24T04:21:09;99453.83;;;7.43;74.03
60642;BME280;46837;52.446;-1.930;2023-04-24T04:22:09;99453.76;;;7.39;74.03
60642;BME280;46837;52.446;-1.930;2023-04-24T04:23:09;99455.36;;;7.32;74.05
60642;BME280;46837;52.446;-1.930;2023-04-24T04:24:09;99458.88;;;7.31;74.22
60642;BME280;46837;52.446;-1.930;2023-04-24T04:25:09;99463.00;;;7.28;74.21
60642;BME280;46837;52.446;-1.930;2023-04-24T04:26:09;99465.43;;;7.27;74.24
60642;BME280;46837;52.446;-1.930;2023-04-24T04:27:09;99467.04;;;7.21;74.30
60642;BME280;46837;52.446;-1.930;2023-04-24T04:28:09;99468.46;;;7.13;74.39
60642;BME280;46837;52.446;-1.930;2023-04-24T04:29:09;99471.61;;;7.09;75.23
60642;BME280;46837;52.446;-1.930;2023-04-24T04:30:09;99472.18;;;7.05;74.53
60642;BME280;46837;52.446;-1.930;2023-04-24T04:31:09;99475.55;;;7.07;74.79
60642;BME280;46837;52.446;-1.930;2023-04-24T04:32:09;99472.39;;;7.07;74.91
60642;BME280;46837;52.446;-1.930;2023-04-24T04:33:09;99478.61;;;7.09;75.07
60642;BME280;46837;52.446;-1.930;2023-04-24T04:34:09;99475.81;;;7.06;74.83
60642;BME280;46837;52.446;-1.930;2023-04-24T04:35:09;99480.08;;;7.09;74.94
60642;BME280;46837;52.446;-1.930;2023-04-24T04:36:09;99483.43;;;7.08;75.09
60642;BME280;46837;52.446;-1.930;2023-04-24T04:37:09;99478.94;;;7.09;75.20
60642;BME280;46837;52.446;-1.930;2023-04-24T04:38:11;99479.18;;;7.06;74.96
60642;BME280;46837;52.446;-1.930;2023-04-24T04:39:09;99480.81;;;7.06;75.19
60642;BME280;46837;52.446;-1.930;2023-04-24T04:40:13;99481.67;;;7.06;75.10
60642;BME280;46837;52.446;-1.930;2023-04-24T04:41:09;99481.73;;;7.05;75.04
60642;BME280;46837;52.446;-1.930;2023-04-24T04:42:09;99484.77;;;7.04;74.91
60642;BME280;46837;52.446;-1.930;2023-04-24T04:43:09;99484.62;;;7.07;75.07
60642;BME280;46837;52.446;-1.930;2023-04-24T04:44:09;99481.91;;;7.10;75.08
60642;BME280;46837;52.446;-1.930;2023-04-24T04:45:09;99481.97;;;7.08;75.28
60642;BME280;46837;52.446;-1.930;2023-04-24T04:46:09;99486.11;;;7.11;75.53
60642;BME280;46837;52.446;-1.930;2023-04-24T04:47:09;99482.39;;;7.15;75.61
60642;BME280;46837;52.446;-1.930;2023-04-24T04:48:10;99484.72;;;7.16;75.46
60642;BME280;46837;52.446;-1.930;2023-04-24T04:49:09;99484.46;;;7.17;75.50
60642;BME280;46837;52.446;-1.930;2023-04-24T04:50:09;99480.78;;;7.18;75.58
60642;BME280;46837;52.446;-1.930;2023-04-24T04:51:09;99483.19;;;7.22;75.53
60642;BME280;46837;52.446;-1.930;2023-04-24T04:52:09;99481.61;;;7.21;75.48
60642;BME280;46837;52.446;-1.930;2023-04-24T04:53:09;99479.34;;;7.24;75.42
60642;BME280;46837;52.446;-1.930;2023-04-24T04:54:09;99480.63;;;7.23;75.41
60642;BME280;46837;52.446;-1.930;2023-04-24T04:55:09;99483.35;;;7.23;75.66
60642;BME280;46837;52.446;-1.930;2023-04-24T04:56:09;99486.29;;;7.23;75.74
60642;BME280;46837;52.446;-1.930;2023-04-24T04:57:09;99482.88;;;7.25;75.91
60642;BME280;46837;52.446;-1.930;2023-04-24T04:58:09;99486.81;;;7.26;75.57
60642;BME280;46837;52.446;-1.930;2023-04-24T04:59:09;99484.52;;;7.26;75.71
60642;BME280;46837;52.446;-1.930;2023-04-24T05:00:09;99490.39;;;7.27;75.75
60642;BME280;46837;52.446;-1.930;2023-04-24T05:01:09;99489.16;;;7.29;75.61
60642;BME280;46837;52.446;-1.930;2023-04-24T05:02:09;99492.39;;;7.25;75.54
60642;BME280;46837;52.446;-1.930;2023-04-24T05:03:09;99496.00;;;7.29;75.67
60642;BME280;46837;52.446;-1.930;2023-04-24T05:04:09;99497.07;;;7.27;75.63
60642;BME280;46837;52.446;-1.930;2023-04-24T05:05:09;99497.51;;;7.26;75.85
60642;BME280;46837;52.446;-1.930;2023-04-24T05:06:09;99501.91;;;7.26;76.10
60642;BME280;46837;52.446;-1.930;2023-04-24T05:07:09;99503.57;;;7.22;75.63
60642;BME280;46837;52.446;-1.930;2023-04-24T05:08:09;99502.54;;;7.23;75.77
60642;BME280;46837;52.446;-1.930;2023-04-24T05:09:09;99501.62;;;7.24;75.71
60642;BME280;46837;52.446;-1.930;2023-04-24T05:10:09;99501.34;;;7.21;75.70
60642;BME280;46837;52.446;-1.930;2023-04-24T05:11:09;99500.69;;;7.22;75.66
60642;BME280;46837;52.446;-1.930;2023-04-24T05:12:09;99504.75;;;7.19;75.89
60642;BME280;46837;52.446;-1.930;2023-04-24T05:13:09;99504.00;;;7.22;75.83
60642;BME280;46837;52.446;-1.930;2023-04-24T05:14:09;99505.38;;;7.26;75.48
60642;BME280;46837;52.446;-1.930;2023-04-24T05:15:09;99508.73;;;7.22;75.29
60642;BME280;46837;52.446;-1.930;2023-04-24T05:16:09;99511.02;;;7.24;75.42
60642;BME280;46837;52.446;-1.930;2023-04-24T05:17:09;99509.04;;;7.20;74.80
60642;BME280;46837;52.446;-1.930;2023-04-24T05:18:09;99511.54;;;7.20;74.86